Time;durP1;ratioP1;P1;durP2;ratioP2;P2;SDS_P1;SDS_P2;PMS_P1;PMS_P2;Temp;Humidity;BMP_temperature;BMP_pressure;BME280_temperature;BME280_humidity;BME280_pressure;Samples;Min_cycle;Max_cycle;Signal;HPM_P1;HPM_P2
2023/12/03 00:02:17;;;;;;;3.03;2.75;;;;;;;1.27;59.25;99164.97;5308665;26;20056;-94
2023/12/03 00:04:43;;;;;;;0.00;0.00;;;;;;;1.23;59.24;99165.00;5308740;26;20434;-94
2023/12/03 00:07:08;;;;;;;0.22;0.22;;;;;;;1.15;59.24;99179.53;5308310;26;20116;-92
2023/12/03 00:09:34;;;;;;;0.00;0.00;;;;;;;1.31;59.24;99188.03;5308147;26;21762;-92
2023/12/03 00:11:59;;;;;;;0.00;0.00;;;;;;;1.22;59.24;99188.06;5309073;26;20098;-93
2023/12/03 00:14:24;;;;;;;0.00;0.00;;;;;;;1.11;59.24;99192.37;5310392;26;27212;-93
2023/12/03 00:16:50;;;;;;;0.10;0.10;;;;;;;1.30;59.25;99209.41;5308750;26;20464;-94
2023/12/03 00:19:15;;;;;;;2.80;1.02;;;;;;;1.39;59.25;99221.31;5308126;26;21560;-89
2023/12/03 00:21:41;;;;;;;0.00;0.00;;;;;;;1.15;59.23;99235.06;5307843;26;31488;-94
2023/12/03 00:24:06;;;;;;;0.00;0.00;;;;;;;0.97;59.23;99214.63;5308520;26;20084;-92
2023/12/03 00:26:31;;;;;;;0.40;0.40;;;;;;;1.01;59.22;99224.88;5308150;26;20056;-91
2023/12/03 00:28:57;;;;;;;0.00;0.00;;;;;;;1.10;59.23;99236.81;5344522;26;22311;-93
2023/12/03 00:31:22;;;;;;;0.00;0.00;;;;;;;1.10;59.23;99247.06;5307925;26;20114;-91
2023/12/03 00:33:48;;;;;;;3.35;1.67;;;;;;;1.22;59.24;99262.44;5308388;26;20076;-93
2023/12/03 00:36:13;;;;;;;4.68;1.02;;;;;;;1.18;59.23;99270.94;5307801;26;20105;-93
2023/12/03 00:38:38;;;;;;;0.77;0.77;;;;;;;1.21;59.24;99269.25;5326162;26;20080;-91
2023/12/03 00:41:04;;;;;;;0.00;0.00;;;;;;;1.10;59.23;99278.66;5307015;26;24573;-92
2023/12/03 00:43:29;;;;;;;0.52;0.52;;;;;;;1.27;59.25;99270.94;5308179;26;20130;-92
2023/12/03 00:45:57;;;;;;;0.00;0.00;;;;;;;1.27;59.24;99267.53;5307409;26;20584;-93
2023/12/03 00:48:22;;;;;;;0.00;0.00;;;;;;;1.22;59.24;99281.22;5326423;26;20106;-92
2023/12/03 00:50:48;;;;;;;0.75;0.75;;;;;;;1.28;59.25;99282.06;5307468;26;29001;-92
2023/12/03 00:53:14;;;;;;;1.75;0.90;;;;;;;1.22;59.24;99303.44;5308356;26;20410;-92
2023/12/03 00:55:39;;;;;;;2.53;0.62;;;;;;;1.12;59.23;99309.41;5310173;26;20064;-93
2023/12/03 00:58:05;;;;;;;0.00;0.00;;;;;;;1.20;59.24;99331.66;5307154;26;27608;-92
2023/12/03 01:00:30;;;;;;;0.32;0.32;;;;;;;1.35;59.25;99342.72;5307013;26;27985;-91
2023/12/03 01:02:55;;;;;;;0.32;0.32;;;;;;;1.30;59.24;99337.59;5307628;26;20400;-92
2023/12/03 01:05:21;;;;;;;0.85;0.85;;;;;;;1.31;59.24;99335.88;5307353;26;22109;-92
2023/12/03 01:07:46;;;;;;;0.00;0.00;;;;;;;1.14;59.24;99335.91;5307574;26;25223;-92
2023/12/03 01:10:11;;;;;;;2.05;1.52;;;;;;;1.34;59.25;99349.56;5307644;26;20072;-90
2023/12/03 01:12:37;;;;;;;0.00;0.00;;;;;;;1.30;59.25;99344.44;5307977;26;20083;-92
2023/12/03 01:15:03;;;;;;;2.80;1.55;;;;;;;1.26;59.24;99355.56;5310421;26;20080;-93
2023/12/03 01:17:28;;;;;;;0.00;0.00;;;;;;;1.40;59.25;99346.97;5308048;26;20056;-92
2023/12/03 01:19:54;;;;;;;0.35;0.30;;;;;;;1.44;59.25;99358.09;5345177;26;20076;-93
2023/12/03 01:22:19;;;;;;;1.27;0.95;;;;;;;1.40;59.25;99364.91;5307889;26;20079;-91
2023/12/03 01:24:44;;;;;;;0.10;0.10;;;;;;;1.42;59.26;99359.78;5307846;26;20103;-92
2023/12/03 01:27:10;;;;;;;0.00;0.00;;;;;;;1.11;59.24;99389.72;5308365;26;20107;-93
2023/12/03 01:29:35;;;;;;;0.37;0.22;;;;;;;1.09;59.23;99374.34;5307779;26;20203;-94
2023/12/03 01:32:01;;;;;;;0.17;0.10;;;;;;;1.07;59.23;99359.84;5308546;26;20110;-94
2023/12/03 01:34:26;;;;;;;0.00;0.00;;;;;;;1.15;59.23;99361.53;5308758;26;20069;-93
2023/12/03 01:36:51;;;;;;;0.00;0.00;;;;;;;1.26;59.24;99360.69;5309220;26;26314;-94
2023/12/03 01:39:17;;;;;;;0.20;0.20;;;;;;;1.07;59.23;99364.97;5308079;26;25217;-94
2023/12/03 01:41:42;;;;;;;0.00;0.00;;;;;;;1.12;59.23;99355.56;5323521;26;30695;-92
2023/12/03 01:44:07;;;;;;;0.45;0.45;;;;;;;0.91;59.22;99369.22;5324482;26;25257;-93
2023/12/03 01:46:33;;;;;;;2.15;2.03;;;;;;;1.18;59.23;99370.94;5326450;26;20035;-91
2023/12/03 01:48:59;;;;;;;0.00;0.00;;;;;;;1.07;59.23;99394.00;5325536;26;26530;-93
2023/12/03 01:51:24;;;;;;;0.10;0.10;;;;;;;1.04;59.22;99382.91;5327066;26;20073;-93
2023/12/03 01:53:50;;;;;;;0.22;0.22;;;;;;;0.92;59.23;99386.31;5308473;26;20427;-94
2023/12/03 01:56:15;;;;;;;0.60;0.60;;;;;;;0.73;59.20;99405.94;5308673;26;20080;-92
2023/12/03 01:58:41;;;;;;;0.60;0.57;;;;;;;0.92;59.23;99409.34;5326484;26;20052;-94
2023/12/03 02:01:06;;;;;;;0.00;0.00;;;;;;;0.79;59.21;99388.00;5308354;26;20072;-93
2023/12/03 02:03:32;;;;;;;0.30;0.30;;;;;;;0.85;59.22;99413.63;5307993;26;20052;-92
2023/12/03 02:06:10;;;;;;;1.02;1.00;;;;;;;0.93;59.22;99399.09;5307966;26;20060;-93
2023/12/03 02:08:35;;;;;;;2.35;2.17;;;;;;;1.00;59.23;99415.38;5309354;26;20102;-94
2023/12/03 02:11:05;;;;;;;0.22;0.17;;;;;;;0.91;59.23;99407.66;5310582;26;20056;-94
2023/12/03 02:13:37;;;;;;;3.97;3.65;;;;;;;0.77;59.22;99417.91;5309192;26;20075;-94
2023/12/03 02:16:03;;;;;;;0.10;0.10;;;;;;;0.76;59.22;99416.19;5309741;26;20061;-93
2023/12/03 02:18:29;;;;;;;0.00;0.00;;;;;;;0.73;59.21;99429.00;5326769;26;20056;-94
2023/12/03 02:20:55;;;;;;;0.32;0.32;;;;;;;0.67;59.21;99436.63;5326397;26;20653;-94
2023/12/03 02:23:20;;;;;;;1.55;1.45;;;;;;;0.81;59.21;99449.50;5308305;26;20068;-95
2023/12/03 02:25:51;;;;;;;2.10;0.75;;;;;;;0.76;59.21;99454.63;5308075;26;20443;-93
2023/12/03 02:28:18;;;;;;;1.73;0.52;;;;;;;0.91;59.22;99457.19;5309946;26;20668;-93
2023/12/03 02:30:43;;;;;;;1.98;1.35;;;;;;;0.78;59.21;99470.84;5311222;26;20123;-92
2023/12/03 02:33:08;;;;;;;0.30;0.15;;;;;;;0.68;59.21;99474.22;5307127;26;23801;-92
2023/12/03 02:35:34;;;;;;;0.00;0.00;;;;;;;0.82;59.22;99476.81;5307969;26;20057;-94
2023/12/03 02:37:59;;;;;;;0.00;0.00;;;;;;;0.71;59.21;99487.06;5307374;26;30807;-92
2023/12/03 02:40:25;;;;;;;0.20;0.20;;;;;;;0.53;59.20;99484.41;5326127;26;20076;-93
2023/12/03 02:42:50;;;;;;;0.00;0.00;;;;;;;0.45;59.20;99481.81;5308521;26;20060;-93
2023/12/03 02:45:16;;;;;;;0.57;0.57;;;;;;;0.44;59.19;99484.34;5308312;26;20392;-92
2023/12/03 02:47:42;;;;;;;0.00;0.00;;;;;;;0.47;59.20;99490.34;5308365;26;20143;-94
2023/12/03 02:50:07;;;;;;;0.10;0.10;;;;;;;0.45;59.20;99496.31;5346943;26;20053;-93
2023/12/03 02:52:33;;;;;;;0.00;0.00;;;;;;;0.48;59.19;99510.00;5308423;26;20110;-94
2023/12/03 02:54:58;;;;;;;1.42;0.85;;;;;;;0.53;59.20;99538.19;5326976;26;20112;-94
2023/12/03 02:57:24;;;;;;;0.00;0.00;;;;;;;0.37;59.18;99551.75;5309270;26;20075;-94
2023/12/03 02:59:50;;;;;;;0.13;0.13;;;;;;;0.30;59.19;99556.84;5327559;26;20074;-93
2023/12/03 03:02:16;;;;;;;0.47;0.25;;;;;;;0.12;59.17;99558.44;5308824;26;20113;-93
2023/12/03 03:04:42;;;;;;;8.27;1.45;;;;;;;0.22;59.17;99547.38;5308996;26;20048;-93
2023/12/03 03:07:07;;;;;;;0.00;0.00;;;;;;;0.26;59.19;99557.69;5308894;26;20463;-93
2023/12/03 03:09:32;;;;;;;0.52;0.52;;;;;;;0.20;59.18;99557.63;5308590;26;25225;-94
2023/12/03 03:11:58;;;;;;;0.00;0.00;;;;;;;0.39;59.19;99573.09;5308370;26;23396;-93
2023/12/03 03:14:26;;;;;;;0.22;0.15;;;;;;;0.42;59.19;99598.72;5309192;26;20052;-93
2023/12/03 03:16:51;;;;;;;0.00;0.00;;;;;;;0.44;59.19;99609.81;5310174;26;20409;-92
2023/12/03 03:19:17;;;;;;;0.00;0.00;;;;;;;0.34;59.19;99602.94;5308707;26;20080;-92
2023/12/03 03:21:42;;;;;;;0.20;0.20;;;;;;;0.38;59.19;99615.78;5322859;26;20067;-92
2023/12/03 03:24:08;;;;;;;0.22;0.22;;;;;;;0.32;59.19;99632.81;5326024;26;20041;-93
2023/12/03 03:26:33;;;;;;;0.00;0.00;;;;;;;0.34;59.19;99628.53;5316856;26;20393;-94
2023/12/03 03:28:58;;;;;;;0.00;0.00;;;;;;;0.18;59.18;99630.97;5308467;26;26734;-93
2023/12/03 03:31:24;;;;;;;0.20;0.20;;;;;;;0.03;59.17;99653.91;5308572;26;20381;-93
2023/12/03 03:33:49;;;;;;;0.20;0.20;;;;;;;0.07;59.17;99642.84;5308646;26;20060;-93
2023/12/03 03:36:15;;;;;;;0.20;0.20;;;;;;;0.11;59.17;99656.53;5327508;26;20072;-93
2023/12/03 03:38:42;;;;;;;0.10;0.10;;;;;;;0.32;59.19;99666.09;5308070;26;20064;-91
2023/12/03 03:41:08;;;;;;;0.52;0.52;;;;;;;0.46;59.20;99667.88;5304450;27;20078;-93
2023/12/03 03:43:34;;;;;;;0.20;0.20;;;;;;;0.29;59.18;99669.47;5285362;27;20057;-93
2023/12/03 03:46:00;;;;;;;0.05;0.05;;;;;;;0.54;59.20;99680.75;5287315;27;20076;-93
2023/12/03 03:48:25;;;;;;;0.00;0.00;;;;;;;0.45;59.20;99678.12;5303341;27;20478;-93
2023/12/03 03:50:51;;;;;;;0.00;0.00;;;;;;;0.40;59.20;99677.22;5285337;27;20064;-94
2023/12/03 03:53:16;;;;;;;0.00;0.00;;;;;;;0.34;59.19;99692.56;5284824;27;20068;-93
2023/12/03 03:55:42;;;;;;;0.30;0.30;;;;;;;0.36;59.19;99693.41;5284343;27;29982;-92
2023/12/03 03:58:07;;;;;;;0.10;0.10;;;;;;;0.22;59.18;99700.97;5284399;27;25367;-91
2023/12/03 04:00:32;;;;;;;0.20;0.20;;;;;;;0.24;59.18;99704.44;5285420;27;20697;-92
2023/12/03 04:02:58;;;;;;;0.30;0.30;;;;;;;0.34;59.19;99718.16;5285105;27;20084;-94
2023/12/03 04:05:23;;;;;;;0.43;0.43;;;;;;;0.44;59.19;99714.81;5284816;27;21119;-93
2023/12/03 04:07:49;;;;;;;0.00;0.00;;;;;;;0.27;59.19;99718.09;5287250;27;20068;-92
2023/12/03 04:10:17;;;;;;;0.00;0.00;;;;;;;0.36;59.19;99713.91;5285162;27;20065;-92
2023/12/03 04:12:42;;;;;;;0.00;0.00;;;;;;;0.43;59.19;99723.34;5303862;27;20057;-92
2023/12/03 04:15:08;;;;;;;0.00;0.00;;;;;;;0.38;59.19;99725.00;5284603;27;20071;-90
2023/12/03 04:17:33;;;;;;;0.00;0.00;;;;;;;0.32;59.19;99743.75;5285388;27;20132;-93
2023/12/03 04:19:59;;;;;;;0.50;0.50;;;;;;;0.18;59.18;99738.47;5284285;27;28287;-92
2023/12/03 04:22:24;;;;;;;0.00;0.00;;;;;;;0.14;59.18;99730.78;5303681;27;20056;-94
2023/12/03 04:24:50;;;;;;;0.00;0.00;;;;;;;0.16;59.18;99736.75;5303347;27;26683;-95
2023/12/03 04:27:16;;;;;;;0.00;0.00;;;;;;;0.08;59.17;99744.38;5287855;27;24962;-94
2023/12/03 04:29:41;;;;;;;0.10;0.10;;;;;;;0.24;59.18;99750.50;5285666;27;20069;-93
2023/12/03 04:32:07;;;;;;;0.60;0.47;;;;;;;0.33;59.19;99752.28;5286109;27;20105;-94
2023/12/03 04:34:33;;;;;;;0.30;0.30;;;;;;;0.17;59.18;99759.81;5285410;27;20110;-93
2023/12/03 04:36:59;;;;;;;0.00;0.00;;;;;;;0.33;59.19;99749.72;5285106;27;20075;-93
2023/12/03 04:39:24;;;;;;;0.00;0.00;;;;;;;0.20;59.18;99753.84;5285915;27;20070;-94
2023/12/03 04:41:50;;;;;;;0.15;0.15;;;;;;;0.18;59.18;99764.06;5305554;26;96605;-93
2023/12/03 04:44:15;;;;;;;1.65;1.55;;;;;;;0.13;59.18;99754.66;5308897;26;20072;-94
2023/12/03 04:46:41;;;;;;;0.00;0.00;;;;;;;0.05;59.17;99759.69;5314491;26;20109;-94
2023/12/03 04:49:06;;;;;;;0.08;0.08;;;;;;;-0.16;59.16;99762.03;5326140;26;20028;-94
2023/12/03 04:51:33;;;;;;;0.22;0.22;;;;;;;-0.08;59.16;99758.69;5325822;26;20038;-90
2023/12/03 04:53:59;;;;;;;2.08;1.83;;;;;;;-0.24;59.15;99761.06;5320328;26;20593;-91
2023/12/03 04:56:24;;;;;;;0.10;0.10;;;;;;;-0.31;59.15;99766.09;5309260;26;20064;-94
2023/12/03 04:58:50;;;;;;;1.15;1.05;;;;;;;-0.19;59.16;99760.28;5308747;26;20106;-93
2023/12/03 05:01:19;;;;;;;0.00;0.00;;;;;;;-0.13;59.17;99772.28;5308185;26;20060;-93
2023/12/03 05:03:45;;;;;;;0.00;0.00;;;;;;;-0.06;59.17;99774.06;5308254;26;20075;-92
2023/12/03 05:06:11;;;;;;;0.20;0.20;;;;;;;-0.17;59.16;99791.00;5308360;26;20083;-92
2023/12/03 05:08:36;;;;;;;0.00;0.00;;;;;;;-0.23;59.15;99804.59;5326869;26;20060;-91
2023/12/03 05:11:05;;;;;;;0.00;0.00;;;;;;;-0.21;59.15;99822.50;5308535;26;20060;-91
2023/12/03 05:13:31;;;;;;;0.00;0.00;;;;;;;-0.25;59.16;99805.38;5308928;26;20048;-93
2023/12/03 05:15:57;;;;;;;0.30;0.30;;;;;;;-0.36;59.15;99808.69;5308065;26;20083;-94
2023/12/03 05:18:22;;;;;;;0.00;0.00;;;;;;;-0.32;59.15;99818.09;5308952;26;20099;-93
2023/12/03 05:20:48;;;;;;;0.10;0.10;;;;;;;-0.29;59.15;99824.09;5308432;26;20056;-94
2023/12/03 05:23:14;;;;;;;0.00;0.00;;;;;;;-0.32;59.15;99827.47;5311089;26;20067;-94
2023/12/03 05:25:39;;;;;;;0.00;0.00;;;;;;;-0.26;59.16;99831.81;5308686;26;20060;-95
2023/12/03 05:28:05;;;;;;;0.00;0.00;;;;;;;-0.15;59.16;99827.69;5308218;26;20087;-92
2023/12/03 05:30:30;;;;;;;0.00;0.00;;;;;;;-0.27;59.15;99825.81;5308790;26;20111;-91
2023/12/03 05:32:56;;;;;;;0.00;0.00;;;;;;;-0.31;59.15;99835.16;5308409;26;20049;-92
2023/12/03 05:35:22;;;;;;;0.00;0.00;;;;;;;-0.45;59.14;99834.13;5308456;26;20104;-93
2023/12/03 05:37:47;;;;;;;3.00;0.68;;;;;;;-0.46;59.14;99847.75;5308920;26;20083;-94
2023/12/03 05:40:13;;;;;;;0.03;0.03;;;;;;;-0.36;59.15;99849.59;5307905;26;25137;-93
2023/12/03 05:42:38;;;;;;;0.00;0.00;;;;;;;-0.29;59.14;99854.78;5311201;26;20090;-93
2023/12/03 05:45:04;;;;;;;0.00;0.00;;;;;;;-0.33;59.15;99857.31;5308103;26;24163;-94
2023/12/03 05:47:30;;;;;;;0.00;0.00;;;;;;;-0.33;59.15;99864.13;5308831;26;20071;-94
2023/12/03 05:50:00;;;;;;;0.52;0.52;;;;;;;-0.37;59.14;99873.44;5308767;26;20054;-93
2023/12/03 05:52:26;;;;;;;0.00;0.00;;;;;;;-0.28;59.16;99876.97;5309712;26;20102;-93
2023/12/03 05:54:51;;;;;;;0.00;0.00;;;;;;;-0.33;59.15;99885.44;5308441;26;20076;-93
2023/12/03 05:57:17;;;;;;;0.10;0.10;;;;;;;-0.50;59.14;99883.47;5308719;26;20064;-94
2023/12/03 05:59:42;;;;;;;1.08;0.52;;;;;;;-0.50;59.15;99884.34;5308495;26;20345;-92
2023/12/03 06:02:08;;;;;;;0.00;0.00;;;;;;;-0.60;59.13;99887.59;5307993;26;20068;-94
2023/12/03 06:04:33;;;;;;;0.35;0.30;;;;;;;-0.45;59.14;99898.06;5308019;26;20423;-93
2023/12/03 06:06:59;;;;;;;1.67;0.88;;;;;;;-0.44;59.14;99884.44;5308249;26;20071;-92
2023/12/03 06:09:24;;;;;;;0.00;0.00;;;;;;;-0.48;59.14;99897.13;5308086;26;20111;-92
2023/12/03 06:11:50;;;;;;;0.00;0.00;;;;;;;-0.44;59.14;99911.72;5308564;26;20056;-93
2023/12/03 06:14:16;;;;;;;0.03;0.03;;;;;;;-0.49;59.15;99901.37;5307679;26;20068;-90
2023/12/03 06:16:41;;;;;;;0.00;0.00;;;;;;;-0.57;59.14;99910.66;5307879;26;20074;-93
2023/12/03 06:19:06;;;;;;;0.00;0.00;;;;;;;-0.44;59.14;99914.28;5308155;26;21107;-93
2023/12/03 06:21:32;;;;;;;0.00;0.00;;;;;;;-0.36;59.15;99916.09;5308029;26;24880;-93
2023/12/03 06:23:57;;;;;;;0.00;0.00;;;;;;;-0.36;59.15;99905.84;5308533;26;20064;-93
2023/12/03 06:26:23;;;;;;;0.10;0.10;;;;;;;-0.51;59.13;99923.53;5308393;26;20098;-94
2023/12/03 06:28:48;;;;;;;0.00;0.00;;;;;;;-0.41;59.14;99921.97;5309981;26;20112;-94
2023/12/03 06:31:14;;;;;;;2.05;0.70;;;;;;;-0.70;59.13;99931.75;5328070;26;20087;-92
2023/12/03 06:33:39;;;;;;;0.13;0.13;;;;;;;-0.63;59.14;99933.56;5327876;26;20133;-93
2023/12/03 06:36:05;;;;;;;0.00;0.00;;;;;;;-0.68;59.13;99941.19;5326287;26;24270;-91
2023/12/03 06:38:31;;;;;;;0.00;0.00;;;;;;;-0.59;59.13;99940.44;5309597;26;20052;-94
2023/12/03 06:40:56;;;;;;;0.00;0.00;;;;;;;-0.50;59.15;99945.69;5308760;26;20155;-93
2023/12/03 06:43:22;;;;;;;0.20;0.20;;;;;;;-0.43;59.15;99951.78;5309420;26;20103;-93
2023/12/03 06:45:47;;;;;;;0.32;0.30;;;;;;;-0.58;59.14;99952.41;5328112;26;20116;-93
2023/12/03 06:48:12;;;;;;;0.00;0.00;;;;;;;-0.40;59.14;99955.25;5309649;26;20086;-93
2023/12/03 06:50:38;;;;;;;0.00;0.00;;;;;;;-0.35;59.15;99965.53;5313177;26;20064;-92
2023/12/03 06:53:03;;;;;;;0.22;0.22;;;;;;;-0.38;59.15;99968.91;5326028;26;22010;-92
2023/12/03 06:55:29;;;;;;;0.20;0.20;;;;;;;-0.40;59.15;99957.81;5326210;26;20076;-92
2023/12/03 06:57:55;;;;;;;0.32;0.32;;;;;;;-0.32;59.15;99966.44;5319826;26;20071;-91
2023/12/03 07:00:21;;;;;;;0.00;0.00;;;;;;;-0.24;59.16;99970.81;5308967;26;23049;-92
2023/12/03 07:02:46;;;;;;;0.00;0.00;;;;;;;-0.40;59.15;99979.97;5308395;26;20135;-91
2023/12/03 07:05:11;;;;;;;0.35;0.35;;;;;;;-0.66;59.13;99988.06;5308029;26;20070;-91
2023/12/03 07:07:37;;;;;;;0.00;0.00;;;;;;;-0.58;59.14;99983.06;5309049;26;20113;-92
2023/12/03 07:10:03;;;;;;;0.00;0.00;;;;;;;-0.44;59.14;100001.22;5309436;26;23989;-92
2023/12/03 07:12:29;;;;;;;0.15;0.15;;;;;;;-0.49;59.15;100005.38;5309008;26;20065;-93
2023/12/03 07:14:55;;;;;;;0.00;0.00;;;;;;;-0.55;59.14;100015.50;5309346;26;20757;-92
2023/12/03 07:17:20;;;;;;;0.00;0.00;;;;;;;-0.46;59.14;100019.09;5311592;26;20106;-93
2023/12/03 07:19:46;;;;;;;0.32;0.32;;;;;;;-0.44;59.14;100006.31;5309189;26;20057;-92
2023/12/03 07:22:11;;;;;;;0.00;0.00;;;;;;;-0.20;59.16;100031.44;5308906;26;20094;-93
2023/12/03 07:24:40;;;;;;;0.00;0.00;;;;;;;-0.36;59.15;100041.41;5309106;26;20621;-91
2023/12/03 07:27:06;;;;;;;0.05;0.05;;;;;;;-0.29;59.15;100028.72;5327729;26;20075;-93
2023/12/03 07:29:31;;;;;;;0.45;0.45;;;;;;;-0.28;59.15;100036.41;5309245;26;20068;-92
2023/12/03 07:34:41;;;;;;;0.00;0.00;;;;;;;-0.12;59.17;100045.19;5346114;26;20079;-92
2023/12/03 07:37:06;;;;;;;0.00;0.00;;;;;;;-0.10;59.16;100057.16;5308736;26;20096;-92
2023/12/03 07:39:32;;;;;;;1.35;1.15;;;;;;;0.10;59.17;100060.03;5310826;26;20094;-92
2023/12/03 07:41:57;;;;;;;1.33;1.23;;;;;;;0.17;59.18;100069.53;5308398;26;20111;-93
2023/12/03 07:44:23;;;;;;;0.00;0.00;;;;;;;0.26;59.19;100073.94;5326375;26;25838;-93
2023/12/03 07:46:48;;;;;;;0.25;0.25;;;;;;;0.07;59.17;100077.91;5309505;26;20060;-93
2023/12/03 07:49:14;;;;;;;0.65;0.65;;;;;;;0.08;59.17;100094.13;5311093;26;20052;-94
2023/12/03 07:51:40;;;;;;;0.00;0.00;;;;;;;0.18;59.18;100096.84;5309846;26;21716;-93
2023/12/03 07:54:05;;;;;;;0.47;0.47;;;;;;;0.26;59.18;100095.28;5328098;26;20089;-93
2023/12/03 07:56:37;;;;;;;0.62;0.62;;;;;;;0.14;59.18;100105.31;5311563;26;20102;-93
2023/12/03 07:59:03;;;;;;;0.00;0.00;;;;;;;0.17;59.18;100101.94;5312251;26;20352;-93
2023/12/03 08:01:28;;;;;;;0.00;0.00;;;;;;;0.08;59.17;100104.38;5311207;26;20065;-93
2023/12/03 08:03:53;;;;;;;0.00;0.00;;;;;;;-0.04;59.17;100076.88;5310502;26;21710;-93
2023/12/03 08:06:19;;;;;;;0.00;0.00;;;;;;;-0.13;59.17;100099.75;5308866;26;20060;-94
2023/12/03 08:08:44;;;;;;;0.65;0.62;;;;;;;0.05;59.17;100110.31;5310642;26;20052;-93
2023/12/03 08:11:10;;;;;;;0.00;0.00;;;;;;;-0.17;59.16;100093.75;5308854;26;20060;-93
2023/12/03 08:13:35;;;;;;;1.65;0.30;;;;;;;-0.04;59.17;100099.91;5309154;26;20064;-94
2023/12/03 08:16:04;;;;;;;0.00;0.00;;;;;;;-0.37;59.15;100103.62;5309013;26;20139;-93
2023/12/03 08:18:30;;;;;;;0.00;0.00;;;;;;;-0.39;59.14;100118.09;5310038;26;20025;-93
2023/12/03 08:20:56;;;;;;;0.55;0.20;;;;;;;-0.35;59.15;100113.88;5310871;26;20064;-92
2023/12/03 08:23:21;;;;;;;0.00;0.00;;;;;;;-0.23;59.16;100110.69;5311914;26;20592;-92
2023/12/03 08:25:46;;;;;;;0.00;0.00;;;;;;;-0.10;59.16;100120.28;5311941;26;20661;-93
2023/12/03 08:28:12;;;;;;;1.45;1.20;;;;;;;-0.12;59.16;100120.25;5317521;26;20077;-93
2023/12/03 08:30:38;;;;;;;0.20;0.20;;;;;;;-0.04;59.17;100123.78;5325771;26;20072;-93
2023/12/03 08:33:03;;;;;;;4.68;2.40;;;;;;;0.05;59.17;100132.47;5326925;26;20029;-91
2023/12/03 08:35:31;;;;;;;0.00;0.00;;;;;;;0.13;59.18;100128.34;5310519;26;20075;-93
2023/12/03 08:37:57;;;;;;;0.00;0.00;;;;;;;0.11;59.17;100136.00;5309712;26;20078;-93
2023/12/03 08:40:22;;;;;;;0.77;0.70;;;;;;;0.26;59.19;100137.94;5328542;26;20068;-94
2023/12/03 08:42:47;;;;;;;0.90;0.65;;;;;;;0.37;59.18;100138.09;5327867;26;20150;-93
2023/12/03 08:45:13;;;;;;;2.30;0.80;;;;;;;0.49;59.20;100151.97;5309345;26;23587;-92
2023/12/03 08:47:39;;;;;;;0.90;0.90;;;;;;;0.46;59.20;100133.97;5310203;26;20053;-93
2023/12/03 08:50:05;;;;;;;0.00;0.00;;;;;;;0.50;59.19;100120.38;5309772;26;22017;-93
2023/12/03 08:52:31;;;;;;;0.00;0.00;;;;;;;0.13;59.18;100118.09;5309611;26;20064;-93
2023/12/03 08:54:56;;;;;;;0.37;0.37;;;;;;;0.14;59.17;100118.13;5310691;26;20076;-92
2023/12/03 08:57:24;;;;;;;4.53;4.18;;;;;;;0.15;59.17;100144.56;5309713;26;20080;-93
2023/12/03 08:59:50;;;;;;;0.40;0.40;;;;;;;0.20;59.18;100156.59;5310534;26;20067;-93
2023/12/03 09:02:28;;;;;;;;;;;;;;;;;;;;;
2023/12/03 09:04:56;;;;;;;0.35;0.35;;;;;;;0.33;59.19;100180.72;5328708;26;35867;-92
2023/12/03 09:07:24;;;;;;;0.00;0.00;;;;;;;0.18;59.18;100173.63;5309485;26;20052;-92
2023/12/03 09:09:49;;;;;;;0.00;0.00;;;;;;;0.27;59.18;100178.06;5346599;26;20417;-93
2023/12/03 09:12:17;;;;;;;0.00;0.00;;;;;;;0.46;59.20;100182.63;5309076;26;20067;-93
2023/12/03 09:14:42;;;;;;;0.80;0.32;;;;;;;0.55;59.20;100184.47;5312277;26;20454;-93
2023/12/03 09:17:09;;;;;;;0.00;0.00;;;;;;;0.62;59.21;100169.22;5310145;26;20052;-94
2023/12/03 09:19:34;;;;;;;0.00;0.00;;;;;;;0.56;59.20;100178.50;5327928;26;20121;-92
2023/12/03 09:22:00;;;;;;;0.20;0.20;;;;;;;0.73;59.21;100173.66;5309806;26;20073;-93
2023/12/03 09:24:25;;;;;;;0.30;0.30;;;;;;;0.56;59.20;100178.50;5309810;26;20113;-92
2023/12/03 09:26:50;;;;;;;0.20;0.20;;;;;;;0.62;59.20;100194.81;5309742;26;20186;-92
2023/12/03 09:29:16;;;;;;;0.75;0.75;;;;;;;0.67;59.21;100200.00;5310112;26;20087;-94
2023/12/03 09:31:41;;;;;;;0.00;0.00;;;;;;;0.55;59.20;100199.84;5327639;26;20080;-93
2023/12/03 09:34:07;;;;;;;0.10;0.10;;;;;;;0.76;59.21;100205.28;5327333;26;20078;-93
2023/12/03 09:36:33;;;;;;;0.00;0.00;;;;;;;0.91;59.22;100207.19;5328084;26;20060;-92
2023/12/03 09:38:59;;;;;;;0.00;0.00;;;;;;;1.04;59.23;100209.09;5308216;26;20659;-94
2023/12/03 09:41:24;;;;;;;2.17;0.60;;;;;;;1.34;59.25;100208.62;5308563;26;20086;-92
2023/12/03 09:43:55;;;;;;;2.15;0.60;;;;;;;1.03;59.22;100216.78;5308953;26;20056;-92
2023/12/03 09:46:22;;;;;;;0.00;0.00;;;;;;;1.04;59.24;100198.00;5309189;26;20092;-93
2023/12/03 09:48:48;;;;;;;0.98;0.88;;;;;;;1.05;59.23;100200.56;5309120;26;20425;-93
2023/12/03 09:51:13;;;;;;;0.00;0.00;;;;;;;1.22;59.24;100196.53;5308801;26;20114;-93
2023/12/03 09:53:42;;;;;;;0.80;0.80;;;;;;;1.31;59.24;100205.19;5308781;26;20392;-93
2023/12/03 09:56:08;;;;;;;0.00;0.00;;;;;;;1.37;59.24;100218.94;5309327;26;20053;-93
2023/12/03 09:58:33;;;;;;;0.00;0.00;;;;;;;1.15;59.23;100229.75;5309085;26;20060;-93
2023/12/03 10:01:00;;;;;;;0.28;0.22;;;;;;;1.36;59.25;100219.78;5308626;26;23796;-94
2023/12/03 10:03:26;;;;;;;0.00;0.00;;;;;;;1.44;59.25;100207.06;5308688;26;20049;-94
2023/12/03 10:05:51;;;;;;;0.10;0.10;;;;;;;1.38;59.25;100197.56;5314356;26;20064;-93
2023/12/03 10:08:17;;;;;;;0.00;0.00;;;;;;;1.33;59.25;100191.53;5326132;26;20037;-94
2023/12/03 10:10:43;;;;;;;0.00;0.00;;;;;;;1.48;59.26;100199.41;5337669;26;20039;-93
2023/12/03 10:13:11;;;;;;;0.20;0.20;;;;;;;1.62;59.26;100202.13;5309728;26;20441;-94
2023/12/03 10:15:37;;;;;;;0.60;0.60;;;;;;;1.79;59.27;100192.06;5310274;26;20028;-93
2023/12/03 10:18:03;;;;;;;0.00;0.00;;;;;;;1.77;59.27;100204.00;5309985;26;20068;-94
2023/12/03 10:20:29;;;;;;;0.00;0.00;;;;;;;1.64;59.26;100207.28;5328175;26;20068;-93
2023/12/03 10:22:58;;;;;;;0.00;0.00;;;;;;;1.53;59.25;100213.16;5309210;26;20104;-93
2023/12/03 10:25:27;;;;;;;0.00;0.00;;;;;;;1.61;59.26;100217.50;5309334;26;20076;-93
2023/12/03 10:27:54;;;;;;;3.10;2.80;;;;;;;1.47;59.25;100225.91;5327236;26;20117;-91
2023/12/03 10:30:19;;;;;;;0.80;0.80;;;;;;;1.40;59.25;100220.66;5329813;26;20102;-93
2023/12/03 10:32:45;;;;;;;0.00;0.00;;;;;;;1.48;59.26;100217.38;5308040;26;20719;-92
2023/12/03 10:35:10;;;;;;;0.00;0.00;;;;;;;1.40;59.25;100221.53;5308460;26;23157;-94
2023/12/03 10:37:39;;;;;;;0.10;0.10;;;;;;;1.72;59.27;100219.38;5309047;26;20088;-93
2023/12/03 10:40:06;;;;;;;0.10;0.10;;;;;;;1.71;59.27;100215.06;5305411;27;20069;-94
2023/12/03 10:42:35;;;;;;;0.47;0.47;;;;;;;1.57;59.26;100208.06;5287454;27;20092;-94
2023/12/03 10:45:10;;;;;;;0.00;0.00;;;;;;;1.48;59.25;100206.25;5287410;27;20048;-93
2023/12/03 10:47:36;;;;;;;0.00;0.00;;;;;;;1.32;59.24;100197.50;5287173;27;20061;-91
2023/12/03 10:50:07;;;;;;;0.00;0.00;;;;;;;1.35;59.25;100183.84;5287233;27;20079;-94
2023/12/03 10:52:33;;;;;;;0.00;0.00;;;;;;;1.22;59.24;100190.53;5290776;27;20120;-93
2023/12/03 10:54:59;;;;;;;0.20;0.17;;;;;;;1.05;59.23;100197.16;5287164;27;20061;-93
2023/12/03 10:57:31;;;;;;;0.45;0.45;;;;;;;1.31;59.24;100208.59;5286932;27;20068;-93
2023/12/03 11:00:02;;;;;;;0.00;0.00;;;;;;;1.57;59.26;100208.91;5287136;27;20060;-94
2023/12/03 11:02:29;;;;;;;2.10;1.08;;;;;;;1.93;59.28;100212.75;5305684;27;20056;-93
2023/12/03 11:05:04;;;;;;;0.00;0.00;;;;;;;1.79;59.27;100216.00;5287025;27;20349;-93
2023/12/03 11:07:30;;;;;;;0.32;0.32;;;;;;;1.71;59.27;100237.31;5287301;27;20100;-92
2023/12/03 11:09:57;;;;;;;0.60;0.60;;;;;;;1.64;59.26;100243.19;5287245;27;20080;-93
2023/12/03 11:12:22;;;;;;;0.52;0.40;;;;;;;1.62;59.26;100232.06;5287321;27;20085;-94
2023/12/03 11:14:47;;;;;;;0.00;0.00;;;;;;;1.72;59.27;100236.47;5287609;27;20354;-91
2023/12/03 11:17:31;;;;;;;0.30;0.30;;;;;;;1.78;59.27;100231.41;5304429;27;26649;-93
2023/12/03 11:19:59;;;;;;;0.30;0.30;;;;;;;1.60;59.26;100239.72;5287495;27;20068;-94
2023/12/03 11:22:34;;;;;;;0.22;0.22;;;;;;;1.65;59.26;100239.78;5287086;27;20106;-93
2023/12/03 11:25:12;;;;;;;0.00;0.00;;;;;;;1.65;59.26;100230.37;5304506;27;20057;-93
2023/12/03 11:27:41;;;;;;;0.15;0.15;;;;;;;1.52;59.25;100233.66;5288474;27;20099;-93
2023/12/03 11:30:07;;;;;;;0.00;0.00;;;;;;;1.69;59.26;100236.44;5287016;27;20088;-91
2023/12/03 11:32:33;;;;;;;0.00;0.00;;;;;;;1.78;59.27;100241.66;5287156;27;20078;-92
2023/12/03 11:35:12;;;;;;;0.03;0.03;;;;;;;1.90;59.27;100254.66;5287177;27;25145;-94